Tiempo atmosférico en la estación meteorológica de Alicante/Alacant Aeropuerto, Alacant/Alicante (43 m.)



Fecha
DESCASC
Temp. máxima en grados centígrados (hora)
DESCASC
Temp. mínima en grados centígrados (hora)
DESCASC
Temp. media en grados centígrados
DESCASC
Racha de viento máxima en m/sg (hora)
DESCASC
Velocidad máxima media en intervalos de 10 minutos(hora)
DESCASC
Precipitaciones diarias en mm
DESCASC
Precipitaciones de 00:00 a 06:00 en mm
DESCASC
Precipitaciones de 06:00 a 12:00 en mm
DESCASC
Precipitaciones de 12:00 a 18:00 en mm
DESCASC
Precipitaciones de 18:00 a 24:00 en mm
DESCASC

Gráficas

Temp. máximas Temp. mínimas Temp. medias Precipitaciones Rachas de viento máximas Velocidades máximas media en intervalos de 10 minutos

Datos horarios

Fecha y hora oficial Temperatura (ºC) Velocidad del viento (km/h) Dirección del viento Racha (km/h) Dirección de racha Precipitación (mm) Presión (hPa) Tendencia (hPa) Humedad (%)
2019-04-23 23:00:00 15.5 19 Oeste 30 Oeste 0 1000.5 3.9 48
2019-04-23 22:00:00 14.6 13 Sudoeste 24 Sudoeste 0 998.7 2.1 83
2019-04-23 21:00:00 15.5 13 Sudoeste 26 Sudoeste 0 997.3 0.6 78
2019-04-23 20:00:00 17.1 13 Sudoeste 28 Sur 0 996.6 -0.1 69
2019-04-23 19:00:00 18.2 15 Sudoeste 33 Sudoeste 0 996.6 0.5 66
2019-04-23 18:00:00 17.9 17 Sudoeste 26 Sudoeste 0 996.7 0.8 70
2019-04-23 17:00:00 14.8 8 Sudoeste 54 Oeste 1.6 996.7 0.8 81
2019-04-23 16:00:00 19.2 30 Oeste 41 Oeste 0 996.1 0.3 55
2019-04-23 15:00:00 19.4 17 Sur 33 Sur -- 995.9 0.2 66
2019-04-23 14:00:00 20.1 19 Sur 30 Sur 0 995.9 0.3 60
2019-04-23 13:00:00 20.4 12 Sur 21 Sudoeste 0 995.8 0.2 53
2019-04-23 12:00:00 20.8 8 Sur 17 Sudoeste 0 995.7 -0.1 46
2019-04-23 11:00:00 20.2 5 Oeste 11 Sudoeste 0 995.6 0.3 47
2019-04-23 10:00:00 16.1 7 Oeste 11 Sudoeste 0 995.6 0.7 73
2019-04-23 09:00:00 13.1 9 Sudoeste 17 Sudoeste 0 995.8 0.9 87
2019-04-23 08:00:00 12.6 13 Sudoeste 17 Sudoeste 0 995.3 0 83
2019-04-23 07:00:00 13.3 7 Sudoeste 22 Noroeste 0 994.9 -0.7 79
2019-04-23 06:00:00 12.5 11 Oeste 15 Oeste 0 994.9 -1.2 89
2019-04-23 05:00:00 12 9 Sudoeste 13 Oeste 0 995.3 -1.4 96
2019-04-23 04:00:00 12.1 9 Oeste 13 Oeste 0 995.6 -1.6 98
2019-04-23 03:00:00 11.3 5 Oeste 8 Sudoeste 0 996.1 -1.4 100
2019-04-23 02:00:00 11.4 6 Oeste 9 Oeste 0 996.7 -1.2 97
2019-04-23 01:00:00 13 0 Calma -- -- 0 997.2 -0.7 89
2019-04-23 00:00:00 15 0 Calma 9 Noroeste 0 997.5 0 78
2019-04-22 23:00:00 14.5 3 Nordeste 11 Norte 0 997.9 1 85
2019-04-22 22:00:00 15.1 5 Norte 11 Norte 0 997.9 0.9 77
2019-04-22 21:00:00 15.6 0 Calma 11 Nordeste 0 997.5 0.9 77
2019-04-22 20:00:00 15.8 0 Calma 9 Sur 0 996.9 0.3 72
2019-04-22 19:00:00 16.2 5 Sur 11 Sur 0 997 0.2 77
2019-04-22 18:00:00 17.1 8 Sudeste 17 Sudeste 0 996.6 -0.6 67
2019-04-22 17:00:00 17.5 12 Este 18 Este 0 996.6 -0.8 69
2019-04-22 16:00:00 18 9 Sudeste 17 Este 0 996.8 -1.3 63
2019-04-22 15:00:00 17.6 6 Nordeste 21 Norte 0 997.2 -0.9 63
2019-04-22 14:00:00 16.7 11 Noroeste 24 Noroeste 0 997.4 -0.3 70
2019-04-22 13:00:00 14.8 5 Noroeste 30 Noroeste 0.3 998.1 0.5 75
2019-04-22 12:00:00 14.7 16 Oeste 24 Noroeste 0 998.1 0.8 74
2019-04-22 11:00:00 14.5 10 Oeste 22 Noroeste 0 997.7 0.5 77
2019-04-22 10:00:00 13.6 13 Noroeste 24 Norte 0 997.6 0.9 81
2019-04-22 09:00:00 13.3 14 Noroeste 21 Noroeste 0 997.3 0 79
2019-04-22 08:00:00 12.3 15 Oeste 26 Noroeste 0 997.2 -0.6 91
2019-04-22 07:00:00 12.3 14 Oeste 18 Oeste 0.1 996.7 -1.6 96
2019-04-22 06:00:00 12.1 9 Oeste 18 Oeste 0.3 997.3 -0.7 100
2019-04-22 05:00:00 11.8 12 Oeste 18 Oeste 0 997.8 -0.9 100
2019-04-22 04:00:00 11.8 11 Sudoeste 22 Norte 0.4 998.3 -1.9 97
2019-04-22 03:00:00 12.9 16 Norte 52 Nordeste 5.6 998 -2.3 83
2019-04-22 02:00:00 12.7 37 Norte 52 Norte 5.4 998.7 -1.7 90
2019-04-22 01:00:00 12.3 9 Norte 18 Norte 3.2 1000.2 0.6 98
2019-04-22 00:00:00 12.8 9 Noroeste 21 Noroeste 1.3 1000.3 1.1 90
2019-04-21 23:00:00 13.4 17 Norte 37 Nordeste 0.3 1000.4 -0.9 84
2019-04-21 22:00:00 15.1 19 Nordeste 74 Norte 1.2 999.6 -1.3 70
2019-04-21 21:00:00 14 44 Norte 58 Norte 7.9 999.2 -2.5 78
2019-04-21 20:00:00 12.5 19 Norte 32 Nordeste 5.3 1001.3 -0.8 97
2019-04-21 19:00:00 13.3 22 Norte 33 Norte 2.8 1000.9 -1.3 88
2019-04-21 18:00:00 13.3 13 Noroeste 24 Noroeste 4.8 1001.7 -0.6 93
2019-04-21 17:00:00 14.1 12 Sudoeste 15 Sudoeste 3.3 1002.1 -0.7 95
2019-04-21 16:00:00 14.7 8 Nordeste 22 Nordeste 2 1002.2 -1.4 92
2019-04-21 15:00:00 15.6 14 Nordeste 28 Nordeste 0.1 1002.3 -1.8 86
2019-04-21 14:00:00 16.1 21 Este 30 Este 0 1002.8 -1.7 82
2019-04-21 13:00:00 16.1 13 Este 26 Este 0.1 1003.6 -1.2 78
2019-04-21 12:00:00 17.2 14 Este 26 Nordeste 0 1004.1 -1.2 62
2019-04-21 11:00:00 16.2 5 Este 13 Este 0 1004.5 -0.8 68
2019-04-21 10:00:00 14.7 8 Nordeste 21 Norte 0.3 1004.8 -0.8 77
2019-04-21 09:00:00 14.7 13 Norte 28 Norte 0 1005.3 -0.5 68
2019-04-21 08:00:00 14.4 12 Nordeste 32 Norte 0 1005.3 -1.2 70
2019-04-21 07:00:00 14.1 18 Norte 32 Norte 0 1005.6 -1.7 70
2019-04-21 06:00:00 14.5 20 Norte 41 Norte 0 1005.8 -1.5 67
2019-04-21 05:00:00 14.4 24 Norte 42 Nordeste 0 1006.5 -2 69
2019-04-21 04:00:00 14.4 25 Norte 50 Norte 0 1007.3 -1.8 69
2019-04-21 03:00:00 14.7 29 Norte 58 Nordeste 0 1007.3 -2.5 69
2019-04-21 02:00:00 14.7 10 Nordeste 22 Nordeste 0 1008.5 -1.5 76
2019-04-21 01:00:00 14.6 11 Nordeste 28 Este 0 1009.1 -0.7 81
2019-04-21 00:00:00 15 12 Nordeste 28 Este 0 1009.8 0.3 79
2019-04-20 23:00:00 15.1 16 Nordeste 30 Nordeste 0 1010 1.2 78
2019-04-20 22:00:00 15.2 15 Nordeste 39 Este 0 1009.8 0.8 78
2019-04-20 21:00:00 15.7 22 Nordeste 35 Nordeste 0 1009.5 0.6 75
2019-04-20 20:00:00 15.8 15 Nordeste 30 Nordeste 0 1008.8 -0.1 74
2019-04-20 19:00:00 15.8 20 Nordeste 37 Nordeste 0 1009 0.2 75
2019-04-20 18:00:00 15.9 26 Nordeste 42 Nordeste 0 1008.9 -0.5 73
2019-04-20 17:00:00 15.6 21 Nordeste 46 Nordeste 0 1008.9 -0.2 82
2019-04-20 16:00:00 14.3 29 Nordeste 45 Nordeste 0.4 1008.8 0 100
2019-04-20 15:00:00 13.3 21 Nordeste 35 Norte 3.3 1009.4 0.6 100
2019-04-20 14:00:00 13.5 21 Norte 33 Nordeste 5 1009.1 0.6 100
2019-04-20 13:00:00 13.7 24 Nordeste 46 Nordeste 1.9 1008.8 0.3 100
2019-04-20 12:00:00 13.7 23 Nordeste 46 Nordeste 0.8 1008.8 0.5 100
2019-04-20 11:00:00 13.8 30 Nordeste 55 Nordeste 0.7 1008.5 0.7 100
2019-04-20 10:00:00 13.7 28 Nordeste 50 Nordeste 0.9 1008.5 1.5 100
2019-04-20 09:00:00 13.7 29 Nordeste 58 Nordeste 2 1008.3 1.1 99
2019-04-20 08:00:00 14 34 Nordeste 63 Nordeste 0.3 1007.8 1.5 94
2019-04-20 07:00:00 14 42 Nordeste 76 Nordeste 1.2 1007 -0.2 94
2019-04-20 06:00:00 14.2 50 Nordeste 85 Nordeste 10.1 1007.2 -1.1 94
2019-04-20 05:00:00 15.4 45 Este 72 Nordeste 0 1006.3 -3.4 85
2019-04-20 04:00:00 14.6 40 Nordeste 72 Nordeste 2.7 1007.2 -3.3 99
2019-04-20 03:00:00 14.9 35 Nordeste 61 Nordeste 1.6 1008.3 -3 100
2019-04-20 02:00:00 14.9 32 Nordeste 59 Este 3.7 1009.7 -2.3 100
2019-04-20 01:00:00 14.6 14 Este 30 Este 22 1010.5 -1.3 100
2019-04-20 00:00:00 14.3 17 Nordeste 42 Nordeste 6.5 1011.3 -0.2 100
2019-04-19 23:00:00 14.3 14 Nordeste 28 Nordeste 24.1 1012 0.2 100
2019-04-19 22:00:00 14.1 14 Nordeste 33 Nordeste 7.7 1011.8 0.2 100
2019-04-19 21:00:00 12.4 17 Noroeste 30 Oeste 1.8 1011.5 0.2 100
2019-04-19 20:00:00 12.7 17 Noroeste 30 Noroeste 0.8 1011.8 0.1 98
2019-04-19 19:00:00 12.3 18 Noroeste 33 Norte 4.5 1011.6 -0.3 100
2019-04-19 18:00:00 12.8 17 Noroeste 30 Norte 2.3 1011.3 -0.4 95
2019-04-19 17:00:00 13.1 13 Norte 28 Norte 4.5 1011.7 -0.1 92
2019-04-19 16:00:00 14.1 11 Noroeste 26 Noroeste 1.7 1011.9 0.1 88
2019-04-19 15:00:00 14.7 11 Noroeste 15 Noroeste 0.1 1011.7 -0.4 86
2019-04-19 14:00:00 14.6 8 Sudoeste 21 Oeste 0.2 1011.8 -0.1 87
2019-04-19 13:00:00 14.8 13 Oeste 26 Oeste 0 1011.8 -0.1 85
2019-04-19 12:00:00 14.3 18 Oeste 24 Oeste 0 1012.1 0.4 88
2019-04-19 11:00:00 13.4 11 Oeste 22 Oeste 0.2 1011.9 0.3 100
2019-04-19 10:00:00 13.1 13 Oeste 22 Oeste 0.9 1011.9 0.7 100
2019-04-19 09:00:00 13.4 12 Oeste 17 Oeste 1 1011.7 0.6 99
2019-04-19 08:00:00 13.2 8 Noroeste 11 Noroeste 1.5 1011.6 0.6 100
2019-04-19 07:00:00 13.1 2 Sur 21 Sudeste 2.1 1011.2 0 100
2019-04-19 06:00:00 13.4 9 Sudeste 21 Este 5.8 1011.1 -0.3 100
2019-04-19 05:00:00 14.1 9 Este 13 Este 3.6 1011 -0.4 100
2019-04-19 04:00:00 13.8 4 Este 9 Este 2.2 1011.2 0.3 95
2019-04-19 03:00:00 13.9 2 Oeste 13 Este 0.1 1011.4 0.6 88
2019-04-19 02:00:00 14 4 Noroeste 9 Nordeste 0 1011.4 1.1 82
2019-04-19 01:00:00 14.2 4 Este 11 Este 0 1010.9 1 78
2019-04-19 00:00:00 14.2 2 Oeste 11 Oeste 0 1010.8 1.9 78
2019-04-18 23:00:00 14.3 10 Sudoeste 13 Sudoeste 0 1010.3 3.7 79
2019-04-18 22:00:00 14.5 9 Sudoeste 24 Sudoeste 0 1009.9 2 79
2019-04-18 21:00:00 15.1 16 Sudoeste 39 Oeste 0.1 1008.9 1.2 74
2019-04-18 20:00:00 17.6 18 Norte 39 Norte 0 1006.6 -0.6 49
2019-04-18 19:00:00 16.6 22 Noroeste 45 Noroeste 0 1007.9 1.2 56
2019-04-18 18:00:00 16.2 30 Noroeste 50 Oeste 0 1007.7 0.6 58
2019-04-18 17:00:00 16.4 36 Oeste 52 Oeste 0 1007.2 -0.6 61
2019-04-18 16:00:00 18.6 25 Oeste 32 Oeste 0 1006.7 -1.2 61
2019-04-18 15:00:00 19.4 5 Nordeste 26 Norte 0 1007.1 -1 54
2019-04-18 14:00:00 18.9 8 Noroeste 18 Noroeste 0 1007.8 -0.9 55
2019-04-18 13:00:00 18.5 7 Norte 15 Norte 0 1007.9 -1 55
2019-04-18 12:00:00 17.9 5 Sudoeste 9 Sudoeste 0 1008.1 -0.3 56
2019-04-18 11:00:00 16.9 2 Sur 11 Sudeste 0 1008.7 0.5 61
2019-04-18 10:00:00 17.2 6 Este 15 Oeste 0 1008.9 1.2 55
2019-04-18 09:00:00 16.4 12 Oeste 17 Oeste 0 1008.4 1.5 60
2019-04-18 08:00:00 15 11 Oeste 18 Sudoeste 0 1008.2 0.4 67
2019-04-18 07:00:00 15.2 12 Sudoeste 24 Sudoeste 0 1007.7 -1.5 66
2019-04-18 06:00:00 16.9 9 Nordeste 21 Norte 0 1006.9 -2.6 54
2019-04-18 05:00:00 17.4 20 Norte 41 Norte 0 1007.8 -2.5 52
2019-04-18 04:00:00 15.8 14 Norte 21 Norte 0 1009.2 -2.1 62
2019-04-18 03:00:00 15.8 10 Noroeste 13 Noroeste 0 1009.5 -1.1 65
2019-04-18 02:00:00 15.7 5 Sudoeste 21 Oeste 0 1010.3 -0.2 71
2019-04-18 01:00:00 16 14 Oeste 22 Oeste 0 1011.3 1.4 74
2019-04-18 00:00:00 15.7 15 Nordeste 33 Este 0 1010.6 0.9 79
2019-04-17 23:00:00 16 23 Este 32 Este 0 1010.5 0.2 80
2019-04-17 22:00:00 15.9 23 Este 41 Este 0 1009.9 -1 79
2019-04-17 21:00:00 15.7 31 Nordeste 50 Nordeste 0 1009.7 -1.4 79
2019-04-17 20:00:00 16.1 32 Este 46 Este 0 1010.3 -1.2 78
2019-04-17 19:00:00 16.4 31 Este 41 Este 0 1010.9 -1.2 77
2019-04-17 18:00:00 17.1 28 Este 45 Este 0 1011.1 -1.7 75
2019-04-17 17:00:00 17.5 32 Nordeste 46 Este 0 1011.5 -1.9 71
2019-04-17 16:00:00 18.7 28 Este 42 Este 0 1012.1 -2.1 62
2019-04-17 15:00:00 19 29 Este 45 Este 0 1012.8 -1.3 60
2019-04-17 14:00:00 18.9 30 Este 42 Este 0 1013.4 -1 58
2019-04-17 13:00:00 18.8 26 Este 35 Este 0 1014.2 -0.4 64
2019-04-17 12:00:00 18.4 20 Este 26 Este 0 1014.1 -0.6 63
2019-04-17 11:00:00 18.4 12 Este 21 Este 0 1014.4 -0.2 61
2019-04-17 10:00:00 16.7 7 Este 13 Este 0 1014.6 0.4 67
2019-04-17 09:00:00 14.9 6 Noroeste 13 Oeste 0 1014.7 0.4 77
2019-04-17 08:00:00 11.8 8 Oeste 11 Oeste 0 1014.6 0.1 96
2019-04-17 07:00:00 11.7 7 Noroeste 9 Noroeste 0 1014.2 -0.5 96
2019-04-17 06:00:00 11.8 5 Oeste 13 Oeste 0 1014.3 -1 94
2019-04-17 05:00:00 12.1 5 Oeste 11 Noroeste 0 1014.5 -1.3 93
2019-04-17 04:00:00 12.4 4 Noroeste 18 Este 0 1014.7 -1.5 90
2019-04-17 03:00:00 14.3 15 Este 28 Este 0 1015.3 -1 87
2019-04-17 02:00:00 14.4 18 Este 28 Este 0 1015.8 -0.4 86
2019-04-17 01:00:00 14.7 17 Este 28 Este 0 1016.2 0.5 87
2019-04-17 00:00:00 15 18 Este 26 Nordeste 0 1016.3 1.2 88
2019-04-16 23:00:00 15.2 14 Nordeste 21 Nordeste 0 1016.2 1.5 87
2019-04-16 22:00:00 15.3 10 Nordeste 21 Este 0 1015.7 0.9 84
2019-04-16 21:00:00 15.9 13 Nordeste 22 Nordeste 0 1015.1 0.1 81
2019-04-16 20:00:00 16.8 17 Este 28 Este 0 1014.7 -0.5 74
2019-04-16 19:00:00 17.6 18 Este 30 Este 0 1014.8 -0.7 73
2019-04-16 18:00:00 18.6 22 Este 32 Este 0 1015 -0.8 67
2019-04-16 17:00:00 19 18 Este 33 Este 0 1015.2 -0.6 66
2019-04-16 16:00:00 19 19 Este 33 Este 0 1015.5 -0.2 62
2019-04-16 15:00:00 19.2 23 Este 37 Este 0 1015.8 0.3 66
2019-04-16 14:00:00 18.6 26 Este 39 Este 0 1015.8 0.9 70
2019-04-16 13:00:00 18.6 29 Este 39 Este 0 1015.7 1.1 73
2019-04-16 12:00:00 19.6 23 Nordeste 35 Este 0 1015.5 1.3 67
2019-04-16 11:00:00 21.4 18 Oeste 37 Oeste 0 1014.9 1.5 36
2019-04-16 10:00:00 19.7 28 Oeste 42 Oeste 0 1014.6 1.5 41
2019-04-16 09:00:00 17.6 19 Oeste 30 Oeste 0 1014.2 1.6 54
2019-04-16 08:00:00 12.5 13 Oeste 21 Oeste 0 1013.4 1 97
2019-04-16 07:00:00 12.2 13 Sudoeste 17 Sudoeste 0 1013.1 1.2 100
2019-04-16 06:00:00 11.9 6 Sudeste 9 Sudeste 0 1012.6 0.2 98
2019-04-16 05:00:00 12.6 5 Sur 11 Oeste 0 1012.4 0 94
2019-04-16 04:00:00 12.8 7 Oeste 11 Oeste 0 1011.9 -0.8 93
2019-04-16 03:00:00 14.1 6 Oeste 11 Noroeste 0 1012.4 0.1 91
2019-04-16 02:00:00 14.4 5 Noroeste 9 Noroeste 0 1012.4 0.3 91
2019-04-16 01:00:00 15.7 6 Norte 13 Nordeste 0 1012.7 1.2 87
2019-04-16 00:00:00 16.2 9 Nordeste 15 Nordeste 0 1012.3 1.5 86
2019-04-15 23:00:00 16 9 Nordeste 21 Este 0 1012.1 1.7 88
2019-04-15 22:00:00 16.1 13 Nordeste 21 Este 0 1011.5 1.4 88
2019-04-15 21:00:00 16.1 13 Este 22 Este 0 1010.8 0.7 89
2019-04-15 20:00:00 16.7 17 Este 26 Sudeste 0 1010.4 0.4 87
2019-04-15 19:00:00 18.7 13 Este 18 Este 0 1010.1 -0.1 72
2019-04-15 18:00:00 20.2 12 Este 21 Sudeste 0 1010.1 -0.9 61
2019-04-15 17:00:00 21 13 Sudeste 24 Sudeste 0 1010 -1.3 50
2019-04-15 16:00:00 22.6 17 Este 28 Sudeste 0 1010.2 -1.3 41
2019-04-15 15:00:00 22.3 14 Este 22 Este 0 1011 -- 44
2019-04-15 14:00:00 21.6 9 Sudeste 18 Sudeste 0 1011.3 -1.1 50
2019-04-15 13:00:00 20.6 12 Este 21 Este 0 1011.5 -0.5 59
2019-04-15 12:00:00 27 13 Este 26 Este 0 -- -- 62
2019-04-15 11:00:00 17.7 15 Este 24 Este 0 1012.4 -- 80
2019-04-15 10:00:00 17.2 14 Este 30 Este 0 1012 -- 84
2019-04-15 09:00:00 18.4 21 Este -- -- -- 1011.7 -- 64
2019-04-15 08:00:00 -- -- -- -- -- -- -- -- --
2019-04-15 07:00:00 -- -- -- -- -- -- -- -- --
2019-04-15 06:00:00 -- -- -- -- -- -- -- -- --
2019-04-15 05:00:00 -- -- -- -- -- -- -- -- --
2019-04-15 04:00:00 -- -- -- -- -- -- -- -- --
2019-04-15 03:00:00 -- -- -- -- -- -- -- -- --
2019-04-15 02:00:00 17.8 8 Sudoeste 13 Oeste 0 -- -- 44
2019-04-15 01:00:00 16.9 7 Oeste 8 Noroeste 0 1011.4 0.2 51
2019-04-15 00:00:00 16.7 4 Oeste 9 Norte 0 1011.6 1.3 51
2019-04-14 23:00:00 17.9 6 Oeste 17 Oeste 0 1011.6 2 45
2019-04-14 22:00:00 19.9 7 Noroeste 15 Sudoeste 0 1011.2 1.7 36
2019-04-14 21:00:00 21.8 7 Sudoeste 18 Sur 0 1010.3 0.7 32
2019-04-14 20:00:00 23.9 13 Sur 30 Sur 0 1009.6 -0.2 32
2019-04-14 19:00:00 25.9 19 Sur 39 Sur 0 1009.5 -1 26
2019-04-14 18:00:00 25.2 22 Sur 46 Sur 0 1009.6 -1.4 32
2019-04-14 17:00:00 25.6 29 Sur 46 Sur 0 1009.8 -1.8 32
2019-04-14 16:00:00 27.2 26 Sur 45 Sur 0 1010.5 -1.4 24
2019-04-14 15:00:00 28.7 14 Oeste 37 Oeste 0 1011 -1.4 19
2019-04-14 14:00:00 27.9 17 Sudoeste 37 Oeste 0 1011.6 -1.2 20
2019-04-14 13:00:00 26.9 28 Oeste 45 Oeste 0 1011.9 -0.8 21
2019-04-14 12:00:00 25.4 27 Oeste 37 Noroeste 0 1012.4 -0.4 25
2019-04-14 11:00:00 23.4 27 Oeste 41 Oeste 0 1012.8 0.1 28
2019-04-14 10:00:00 21.1 22 Oeste 32 Oeste 0 1012.7 0.3 32
2019-04-14 09:00:00 18.4 25 Oeste 33 Oeste 0 1012.8 0.4 38
2019-04-14 08:00:00 15.3 14 Oeste 22 Oeste 0 1012.7 0.2 47
2019-04-14 07:00:00 11 13 Oeste 21 Noroeste 0 1012.4 -0.4 70
2019-04-14 06:00:00 11.6 10 Sudoeste 22 Sudoeste 0 1012.4 -0.9 60
2019-04-14 05:00:00 11.5 15 Sudoeste 18 Sudoeste 0 1012.5 -1.5 65
2019-04-14 04:00:00 11.6 12 Oeste 18 Oeste 0 1012.8 -1.8 67
2019-04-14 03:00:00 11.8 14 Oeste 18 Oeste 0 1013.3 -1.6 67
2019-04-14 02:00:00 11.9 14 Oeste 17 Oeste 0 1014 -1 67
2019-04-14 01:00:00 12.3 8 Oeste 11 Oeste 0 1014.6 0 66
2019-04-14 00:00:00 13.1 6 Oeste 9 Oeste 0 1014.9 0.9 61
2019-04-13 23:00:00 14.1 5 Oeste 9 Este 0 1015 1.3 69
2019-04-13 22:00:00 14.7 6 Este 11 Nordeste 0 1014.6 1.1 83
2019-04-13 21:00:00 15.5 9 Nordeste 18 Nordeste 0 1014 0.5 77
2019-04-13 20:00:00 17 13 Nordeste 22 Nordeste 0 1013.7 0.3 66
2019-04-13 19:00:00 17.6 15 Este 24 Este 0 1013.5 -0.2 70
2019-04-13 18:00:00 18.5 15 Este 22 Este 0 1013.5 -0.4 59
2019-04-13 17:00:00 19 14 Este 26 Este 0 1013.4 -0.9 48
2019-04-13 16:00:00 19.5 18 Este 30 Este 0 1013.7 -1.1 40
2019-04-13 15:00:00 19 18 Este 28 Este 0 1013.9 -0.9 48
2019-04-13 14:00:00 19 20 Este 28 Norte 0 1014.3 -0.5 54
2019-04-13 13:00:00 18.9 19 Este 30 Este 0 1014.8 0.4 53
2019-04-13 12:00:00 18.6 16 Este 24 Este 0 1014.8 0.6 49
2019-04-13 11:00:00 18.2 9 Este 17 Este 0 1014.8 1.1 41
2019-04-13 10:00:00 19.1 8 Este 13 Este 0 1014.4 1.5 31
2019-04-13 09:00:00 14.7 0 Calma 11 Norte 0 1014.2 1.8 45
2019-04-13 08:00:00 10.4 4 Norte 8 Norte 0 1013.7 1.1 60
2019-04-13 07:00:00 8.6 0 Calma 5 Oeste 0 1012.9 0.1 68
2019-04-13 06:00:00 8.5 2 Sudoeste 8 Oeste 0 1012.4 -0.7 74
2019-04-13 05:00:00 8.8 5 Oeste 11 Oeste 0 1012.6 -1.1 75
2019-04-13 04:00:00 10.2 10 Oeste 18 Sudoeste 0 1012.8 -1 72
2019-04-13 03:00:00 10.8 9 Oeste 9 Oeste 0 1013.1 -0.7 72
2019-04-13 02:00:00 10.9 6 Oeste 13 Oeste 0 1013.7 -0.2 73
2019-04-13 01:00:00 11.7 8 Oeste 11 Oeste 0 1013.8 0 72
2019-04-13 00:00:00 12.5 5 Noroeste 11 Norte 0 1013.8 0.6 71
2019-04-12 23:00:00 13.3 6 Norte 13 Norte 0 1013.9 1 69
2019-04-12 22:00:00 13.8 6 Nordeste 17 Este 0 1013.8 1 69
2019-04-12 21:00:00 14.7 12 Nordeste 18 Este 0 1013.2 0.4 66
2019-04-12 20:00:00 16.3 13 Este 21 Este 0 1012.9 0.5 58
2019-04-12 19:00:00 17.2 14 Este 26 Este 0 1012.8 0.3 53
2019-04-12 18:00:00 17.6 18 Este 30 Este 0 1012.8 0 55
2019-04-12 17:00:00 18 19 Este 32 Este 0 1012.4 -0.5 45
2019-04-12 16:00:00 18.7 23 Este 32 Este 0 1012.5 -0.4 40
2019-04-12 15:00:00 18.7 20 Este 33 Este 0 1012.8 -- 35
2019-04-12 14:00:00 18.8 25 Este 39 Este 0 1012.9 -- 35
2019-04-12 13:00:00 19.6 24 Este 33 Este 0 1012.9 -- 31
2019-04-12 12:00:00 18.2 21 Oeste 45 Noroeste 0 -- -- 28
2019-04-12 11:00:00 17 37 Oeste 52 Oeste 0 -- -- 30
2019-04-12 10:00:00 15.4 29 Oeste 45 Noroeste 0 -- -- 37
2019-04-12 09:00:00 14 20 Oeste 30 Oeste 0 -- -- 42
2019-04-12 08:00:00 12.3 22 Oeste 37 Noroeste 0 -- -- 47
2019-04-12 07:00:00 11.6 17 Oeste 26 Oeste 0 -- -- 50
2019-04-12 06:00:00 12.2 19 Oeste 30 Oeste 0 -- -- 50
2019-04-12 05:00:00 12.6 14 Oeste 21 Noroeste 0 -- -- 48
2019-04-12 04:00:00 12.9 15 Noroeste 18 Noroeste 0 -- -- 49
2019-04-12 03:00:00 12.3 11 Noroeste 13 Noroeste 0 -- -- 54
2019-04-12 02:00:00 12.2 0 Calma 5 Noroeste 0 -- -- 56
2019-04-12 01:00:00 11.6 0 Calma 13 Noroeste 0 -- -- 66
2019-04-12 00:00:00 13.6 8 Noroeste 13 Noroeste 0 -- -- 66
2019-04-11 23:00:00 14.9 8 Norte 15 Nordeste 0 -- -- 67
2019-04-11 22:00:00 15.1 12 Nordeste 18 Norte 0 -- -- 68
2019-04-11 21:00:00 15.8 11 Este 28 Norte 0 -- -- 63
2019-04-11 20:00:00 16.5 14 Nordeste 24 Este 0 -- -- 60
2019-04-11 19:00:00 17.8 13 Sur 24 Sur 0 -- -- 47
2019-04-11 18:00:00 18.2 14 Sur 28 Sudeste 0 -- -- 48
2019-04-11 17:00:00 19.4 17 Sudeste 32 Este 0 -- -- 36
2019-04-11 16:00:00 19.5 19 Sudeste 30 Sudeste 0 -- -- 33
2019-04-11 15:00:00 19.5 19 Sudeste 28 Este 0 -- -- 31
2019-04-11 14:00:00 19.7 18 Este 30 Este 0 -- -- 32
2019-04-11 13:00:00 19.9 8 Este 22 Oeste 0 -- -- 30
2019-04-11 12:00:00 18.2 13 Oeste 41 Oeste 0 -- -- 33
2019-04-11 11:00:00 16 23 Noroeste 39 Noroeste 0 1011.8 0.9 40
2019-04-11 10:00:00 14.8 26 Oeste 41 Oeste 0 1011.8 1.2 44
2019-04-11 09:00:00 13 26 Noroeste 41 Noroeste 0 1011.2 0.9 50
2019-04-11 08:00:00 11.7 25 Noroeste 35 Noroeste 0 1010.9 0.7 55
2019-04-11 07:00:00 11.8 26 Noroeste 33 Noroeste 0 1010.6 0.4 55
2019-04-11 06:00:00 12 21 Noroeste 32 Noroeste 0 1010.3 -0.1 56
2019-04-11 05:00:00 12.1 16 Noroeste 30 Noroeste 0 1010.2 -0.2 56
2019-04-11 04:00:00 12.3 19 Oeste 26 Oeste 0 1010.2 -0.3 56
2019-04-11 03:00:00 12.7 14 Oeste 33 Noroeste 0 1010.4 0 55
2019-04-11 02:00:00 13.4 24 Noroeste 41 Oeste 0 1010.4 -0.2 52
2019-04-11 01:00:00 13.6 26 Noroeste 41 Noroeste 0 1010.5 0.4 52
2019-04-11 00:00:00 13.4 17 Oeste 26 Oeste 0 1010.4 1 54
2019-04-10 23:00:00 13 17 Oeste 26 Oeste 0 1010.6 2 60
2019-04-10 22:00:00 14.3 18 Oeste 26 Oeste 0 1010.1 1.4 53
2019-04-10 21:00:00 14.7 18 Oeste 37 Oeste 0 1009.4 1.4 51
2019-04-10 20:00:00 16.3 29 Oeste 39 Oeste 0 1008.6 1.1 41
2019-04-10 19:00:00 17.2 28 Oeste 54 Oeste 0 1008.7 0.9 36
2019-04-10 18:00:00 17.3 37 Oeste 59 Oeste 0 1008 -0.6 33
2019-04-10 17:00:00 19.6 30 Oeste 48 Oeste 0 1007.5 -1.4 31
2019-04-10 16:00:00 20.6 31 Oeste 54 Oeste 0 1007.8 -1.7 26
2019-04-10 15:00:00 20.2 28 Oeste 61 Noroeste 0 1008.6 -1.3 27
2019-04-10 14:00:00 19.2 30 Oeste 48 Noroeste 0 1008.9 -- 30
2019-04-10 13:00:00 17.8 27 Oeste 52 Noroeste 0 1009.5 -0.5 33
2019-04-10 12:00:00 17.8 28 Oeste 48 Noroeste 0 1009.9 -0.1 38
2019-04-10 11:00:00 16 23 Oeste 41 Oeste 0 -- -- 45
2019-04-10 10:00:00 15.9 21 Oeste 33 Noroeste 0 1010 0.9 47
2019-04-10 09:00:00 14.1 14 Oeste 37 Oeste 0 1010 1 56
2019-04-10 08:00:00 12.4 15 Oeste 30 Oeste 0 1009.3 0.1 60
2019-04-10 07:00:00 11.3 16 Oeste 24 Oeste 0 1009.1 -0.2 65
2019-04-10 06:00:00 9.4 13 Oeste 15 Oeste 0 1009 -0.5 72
2019-04-10 05:00:00 8.8 12 Oeste 13 Oeste 0 1009.2 -0.7 77
2019-04-10 04:00:00 9.2 8 Oeste 13 Sudoeste 0 1009.3 -0.8 76
2019-04-10 03:00:00 9.8 12 Sudoeste 13 Sudoeste 0 1009.5 -0.6 72
2019-04-10 02:00:00 12.4 10 Oeste -- -- 0 1009.9 -0.3 61
2019-04-10 01:00:00 12.5 9 Oeste 21 Noroeste 0 1010.1 0.3 60
2019-04-10 00:00:00 14.3 13 Noroeste 30 Oeste 0 1010.1 -- 52
2019-04-09 23:00:00 15.3 18 Oeste 28 Oeste 0 1010.2 1.8 49
2019-04-09 22:00:00 15.4 15 Oeste 24 Oeste 0 1009.8 1.8 47
2019-04-09 21:00:00 16.5 15 Oeste 41 Oeste 0 -- -- 42
2019-04-09 20:00:00 18 33 Oeste 46 Oeste 0 1008.4 0.8 36
2019-04-09 19:00:00 18.1 29 Oeste 65 Noroeste 0 1008 -0.3 36
2019-04-09 18:00:00 18.8 12 Sudoeste 41 Sur 0 1007.6 -1.6 50
2019-04-09 17:00:00 20.6 18 Sur 41 Oeste 0 1007.6 -2.1 40
2019-04-09 16:00:00 21.3 29 Oeste 42 Noroeste 0 1008.3 -2.2 24
2019-04-09 15:00:00 20.9 26 Oeste 45 Noroeste 0 1009.2 -1.8 27
2019-04-09 14:00:00 20.4 28 Oeste 46 Noroeste 0 1009.7 -1.6 29
2019-04-09 13:00:00 18.8 27 Oeste 59 Oeste 0 1010.5 -0.9 33
2019-04-09 12:00:00 18.3 37 Oeste 58 Oeste 0 1011 0.2 34
2019-04-09 11:00:00 16.9 35 Oeste 54 Oeste 0 1011.3 1.3 38
2019-04-09 10:00:00 16.2 29 Oeste 50 Oeste 0 1011.4 2 42
2019-04-09 09:00:00 14.8 20 Oeste 30 Oeste 0 1010.8 1.5 50
2019-04-09 08:00:00 13.2 16 Oeste 24 Oeste 0 1010 0.9 58
2019-04-09 07:00:00 13.8 17 Noroeste 30 Noroeste 0 1009.4 0.5 55
2019-04-09 06:00:00 15 14 Oeste 33 Oeste 0 1009.3 0.4 49
2019-04-09 05:00:00 15.9 27 Oeste 39 Oeste 0 1009.1 0.1 47
2019-04-09 04:00:00 14.5 8 Sudoeste 28 Noroeste 0 1008.9 0 57
2019-04-09 03:00:00 15.5 23 Noroeste -- -- -- 1008.9 0 55
2019-04-09 02:00:00 14.8 13 Noroeste 18 Noroeste 0 1009 -0.4 65
2019-04-09 01:00:00 12.9 10 Oeste 11 Sudoeste 0 1008.9 -0.1 83
2019-04-09 00:00:00 14.7 9 Oeste 13 Oeste 0 1008.9 0.2 76
2019-04-08 23:00:00 14.6 8 Oeste 13 Oeste 0 1009.4 0.8 75
2019-04-08 22:00:00 15.8 6 Oeste 9 Sur 0 1009 0.2 70
2019-04-08 21:00:00 17.5 4 Sudoeste 9 Norte 0 1008.7 0.7 62
2019-04-08 20:00:00 18.8 3 Este 18 Norte 0 1008.6 0.3 57
2019-04-08 19:00:00 18.7 7 Noroeste 26 Sur 0 1008.8 -- 55
2019-04-08 18:00:00 21.9 13 Sudoeste 30 Sudoeste 0 1008 -1.6 39
2019-04-08 17:00:00 21.7 20 Sudoeste 32 Sudoeste 0 1008.3 -1.4 41
2019-04-08 16:00:00 20.7 12 Oeste 30 Noroeste 0 -- -- 42
2019-04-08 15:00:00 20.5 25 Oeste 33 Oeste 0 1009.6 -1.2 40
2019-04-08 14:00:00 20.2 16 Sudoeste 33 Sudoeste 0 1009.7 -- 47
2019-04-08 13:00:00 20 15 Sudoeste 26 Sudoeste 0 1010.1 -- 48
2019-04-08 12:00:00 18.3 7 Oeste -- -- -- 1010.8 -- 53
2019-04-08 11:00:00 -- -- -- -- -- -- -- -- --
2019-04-08 10:00:00 -- -- -- -- -- -- -- -- --
2019-04-08 09:00:00 -- -- -- -- -- -- -- -- --
2019-04-08 08:00:00 13.9 12 Oeste 18 Oeste 0 1010.3 0 65
2019-04-08 07:00:00 13.1 11 Sudoeste 15 Sudoeste 0 1009.9 -0.5 66
2019-04-08 06:00:00 14.6 11 Oeste 13 Oeste 0 1010.1 -1 59
2019-04-08 05:00:00 14.5 7 Oeste 17 Oeste 0 1010.3 -1.2 60
2019-04-08 04:00:00 14.7 13 Oeste 18 Oeste 0 1010.4 -1.2 58
2019-04-08 03:00:00 15.1 12 Oeste 22 Oeste 0 1011.1 -- 55
2019-04-08 02:00:00 15.1 14 Oeste 22 Oeste 0 1011.5 0 54
2019-04-08 01:00:00 15.3 9 Sudoeste 24 Oeste 0 1011.6 0.6 52
2019-04-08 00:00:00 16.5 18 Oeste 28 Oeste 0 -- -- 44
2019-04-07 23:00:00 16.9 10 Oeste 18 Oeste 0 1011.5 2 43
2019-04-07 22:00:00 17.5 12 Oeste 32 Oeste 0 1011 2.3 40
2019-04-07 21:00:00 18.2 17 Oeste 33 Oeste 0 1010.2 2.1 34
2019-04-07 20:00:00 18.9 22 Oeste 37 Oeste 0 1009.5 1.6 31
2019-04-07 19:00:00 20 29 Oeste 50 Noroeste 0 1008.7 0.8 27
2019-04-07 18:00:00 20 32 Oeste 50 Oeste 0 1008.1 0.8 29
2019-04-07 17:00:00 19.8 30 Oeste 48 Oeste 0 1007.9 0.4 29
2019-04-07 16:00:00 19.1 28 Oeste 58 Noroeste 0 1007.9 0.5 32
2019-04-07 15:00:00 18.9 44 Noroeste 59 Noroeste 0 1007.3 -0.1 27
2019-04-07 14:00:00 18.2 39 Oeste 65 Oeste 0 1007.5 0.6 32
2019-04-07 13:00:00 17.2 38 Noroeste 58 Oeste 0 1007.4 1 35
2019-04-07 12:00:00 16.1 34 Oeste 59 Oeste 0 1007.4 1.1 39
2019-04-07 11:00:00 14.4 33 Oeste 54 Oeste 0 1006.9 1.5 48
2019-04-07 10:00:00 12.2 30 Oeste 50 Oeste 0 1006.4 1.8 58
2019-04-07 09:00:00 11 20 Oeste 45 Oeste 0 1006.3 2.5 64
2019-04-07 08:00:00 10.3 29 Oeste 54 Oeste 0.1 1005.4 1.5 70
2019-04-07 07:00:00 11.6 30 Oeste 48 Oeste 0 1004.6 0.7 55
2019-04-07 06:00:00 9 10 Sur 15 Sur 0 1003.8 0 67
2019-04-07 05:00:00 8.3 6 Sudoeste 17 Sudoeste 0 1003.9 -0.3 69
2019-04-07 04:00:00 10.1 10 Sudoeste 21 Sudoeste 0 1003.9 -0.1 60
2019-04-07 03:00:00 9.8 12 Oeste 18 Oeste 0 1003.8 -0.1 61
2019-04-07 02:00:00 10.3 10 Oeste 26 Sudoeste 0 1004.2 0.4 58
2019-04-07 01:00:00 11.3 15 Sudoeste 28 Oeste 0 1004 0.7 56
2019-04-07 00:00:00 12.2 21 Oeste 35 Oeste 0 1003.9 1 52
2019-04-06 23:00:00 13.2 18 Oeste 32 Oeste 0 1003.8 1.2 49
2019-04-06 22:00:00 12.3 18 Oeste 37 Oeste 0 1003.3 1.2 66
2019-04-06 21:00:00 12.9 8 Sudoeste 13 Sudoeste 0 1002.9 0.7 65
2019-04-06 20:00:00 13.3 3 Sur 15 Sudeste 0 1002.6 1.4 69
2019-04-06 19:00:00 14.5 6 Sur 35 Noroeste 0 1002.1 0.4 57
2019-04-06 18:00:00 12.6 23 Noroeste 48 Noroeste 1 1002.2 0.3 65
2019-04-06 17:00:00 16.8 21 Sur 37 Sur 0 1001.2 -1.3 48
2019-04-06 16:00:00 15.7 20 Sur 35 Sudeste 0 1001.7 -1.1 51
2019-04-06 15:00:00 16.4 18 Sur 39 Sur 0 1001.9 -1.5 44
2019-04-06 14:00:00 16.9 18 Sudoeste 39 Sudoeste 0 1002.5 -0.8 37
2019-04-06 13:00:00 16.5 12 Sudoeste 35 Oeste 0 1002.8 -0.1 39
2019-04-06 12:00:00 15 17 Sudoeste 37 Sudoeste 0 1003.4 0.6 44
2019-04-06 11:00:00 13.5 15 Sudoeste 24 Sudoeste 0 1003.3 1.3 52
2019-04-06 10:00:00 11.8 8 Sudoeste 15 Sudoeste 0 1002.9 1.8 61
2019-04-06 09:00:00 9.3 10 Oeste 22 Sudoeste 0 1002.8 2.1 74
2019-04-06 08:00:00 5.9 12 Sudoeste 15 Sudoeste 0 1002 1.9 87
2019-04-06 07:00:00 7.4 7 Sur 11 Sudoeste 0 1001.1 0.9 79
2019-04-06 06:00:00 9.6 8 Oeste 17 Oeste 0 1000.7 0.4 66
2019-04-06 05:00:00 9.7 11 Oeste 21 Oeste 0 1000.1 -0.3 65
2019-04-06 04:00:00 8.6 12 Oeste 22 Oeste 0 1000.2 0.2 73
2019-04-06 03:00:00 8.3 17 Oeste 26 Sudoeste 0 1000.3 0.5 74
2019-04-06 02:00:00 8.5 13 Sudoeste 24 Sudoeste 0 1000.4 0.8 71
2019-04-06 01:00:00 9.7 13 Sudoeste 32 Oeste 0 1000 1 65
2019-04-06 00:00:00 9.8 22 Oeste 30 Oeste 0 999.8 2.4 70
2019-04-05 23:00:00 10.1 15 Sudoeste 33 Oeste 0 999.6 2.7 83
2019-04-05 22:00:00 10.9 32 Oeste 46 Oeste 1.6 999 2.1 74
2019-04-05 21:00:00 12.3 9 Oeste 17 Sudoeste 0 997.4 0.2 84
2019-04-05 20:00:00 12.7 9 Sudoeste 24 Sudoeste 0 996.9 0.6 81
2019-04-05 19:00:00 13 10 Sudoeste 24 Oeste 0 996.9 0.3 80
2019-04-05 18:00:00 12.3 24 Oeste 52 Oeste 0.7 997.2 -0.1 77
2019-04-05 17:00:00 13.8 40 Oeste 54 Noroeste 0.8 996.3 -1.4 74
2019-04-05 16:00:00 17.4 22 Sur 37 Sur 0 996.6 -1.6 50
2019-04-05 15:00:00 17.8 20 Sur 33 Sudeste 0 997.3 -1.6 58
2019-04-05 14:00:00 19.3 19 Sur 30 Sudeste 0 997.7 -1.4 45
2019-04-05 13:00:00 18.8 11 Sur 22 Sur 0 998.2 -1.2 41
2019-04-05 12:00:00 17.6 6 Oeste 18 Norte 0 998.9 -0.6 47
2019-04-05 11:00:00 16.6 7 Oeste 17 Noroeste 0 999.1 -0.4 47
2019-04-05 10:00:00 14.9 3 Noroeste 11 Oeste 0 999.4 -0.1 65
2019-04-05 09:00:00 11.9 9 Noroeste 17 Oeste 0 999.5 0 80
2019-04-05 08:00:00 9.9 8 Noroeste 11 Norte 0 999.5 -0.4 86
2019-04-05 07:00:00 10 5 Noroeste 11 Norte 0 999.5 -0.7 84
2019-04-05 06:00:00 10.6 7 Noroeste 9 Noroeste 0 999.5 -1.3 83
2019-04-05 05:00:00 10.8 5 Noroeste 8 Noroeste 0 999.9 -1.1 83
2019-04-05 04:00:00 11.2 0 Calma -- -- 0 1000.2 -1.2 82
2019-04-05 03:00:00 10.8 4 Noroeste 8 Norte 0 1000.8 -0.7 83
2019-04-05 02:00:00 11.4 0 Calma -- -- 0 1001 -0.5 81
2019-04-05 01:00:00 12.7 0 Calma -- -- 0 1001.4 -0.1 74
2019-04-05 00:00:00 13.1 0 Calma 5 Sudeste 0 1001.5 0.3 70
2019-04-04 23:00:00 12.9 4 Sudeste 8 Este 0 1001.5 0.4 71
2019-04-04 22:00:00 12.8 4 Este 8 Sudeste 0 1001.5 0.5 69
2019-04-04 21:00:00 12.6 5 Sudeste 15 Sudeste 0 1001.2 0.4 69
2019-04-04 20:00:00 13.8 10 Sudeste 22 Sudeste 0 1001.1 0.2 62
2019-04-04 19:00:00 15.2 15 Este 26 Sudeste 0 1001 -0.3 56
2019-04-04 18:00:00 15.5 16 Sudeste 32 Este 0 1000.8 -0.8 54
2019-04-04 17:00:00 15.3 20 Sudeste 30 Sudeste 0 1000.9 -1.1 55
2019-04-04 16:00:00 16.3 19 Este 33 Este 0 1001.3 -0.9 52
2019-04-04 15:00:00 14.6 21 Este 30 Norte 0 1001.6 -0.6 58
2019-04-04 14:00:00 16 19 Sudeste 30 Sudeste 0 1002 0.3 54
2019-04-04 13:00:00 15 20 Sudeste 35 Este 0 1002.2 0.8 56
2019-04-04 12:00:00 16.6 10 Sudeste 22 Sudeste 0 1002.2 1.2 43
2019-04-04 11:00:00 15.4 8 Sudoeste 17 Sudoeste 0 1001.7 1.4 49
2019-04-04 10:00:00 13.1 9 Oeste 13 Oeste 0 1001.4 1.6 69
2019-04-04 09:00:00 13.1 5 Noroeste 15 Nordeste 0 1001 1.8 67
2019-04-04 08:00:00 12.5 8 Nordeste 24 Este 0 1000.3 1.5 68
2019-04-04 07:00:00 11.8 14 Este 22 Este 0 999.8 1.3 75
2019-04-04 06:00:00 11.8 14 Este 24 Nordeste 0 999.2 0.8 77
2019-04-04 05:00:00 12.1 9 Nordeste 30 Nordeste 0 998.8 0.5 78
2019-04-04 04:00:00 12.8 19 Nordeste 33 Este 0 998.5 -0.1 77
2019-04-04 03:00:00 13.4 20 Este 37 Este 0 998.4 0.8 77
2019-04-04 02:00:00 13.4 14 Este 35 Este 0 998.3 0.9 83
2019-04-04 01:00:00 15.3 26 Este 35 Este 0 998.6 1.4 79
2019-04-04 00:00:00 15 12 Noroeste 21 Noroeste 0 997.6 0.8 80
2019-04-03 23:00:00 14.4 3 Sudeste 13 Nordeste 0 997.4 1.1 87
2019-04-03 22:00:00 16 7 Norte 15 Nordeste 0 997.2 0.8 81
2019-04-03 21:00:00 16.3 0 Calma 21 Sur 0 996.8 -0.5 76
2019-04-03 20:00:00 18.1 14 Sur 30 Sur 0 996.3 -1.9 69
2019-04-03 19:00:00 19.6 19 Sur 37 Sur 0 996.4 -2.9 64
2019-04-03 18:00:00 20.8 19 Sur 35 Sur 0 997.3 -3 56
2019-04-03 17:00:00 20.8 22 Sur 41 Sur 0 998.2 -3.1 58
2019-04-03 16:00:00 21 24 Sur 39 Sur 0 999.3 -3.1 51
2019-04-03 15:00:00 20.8 26 Sur 39 Sur 0 1000.3 -3.4 56
2019-04-03 14:00:00 21.9 17 Sur 28 Sur 0 1001.3 -3 50
2019-04-03 13:00:00 22.2 15 Sur 26 Sur 0 1002.4 -2.6 49
2019-04-03 12:00:00 20.4 12 Sur 17 Sudoeste 0 1003.7 -1.8 51
2019-04-03 11:00:00 18.9 11 Sudoeste 17 Sudoeste 0 1004.3 -1.4 60
2019-04-03 10:00:00 16.5 7 Sudoeste 21 Sudoeste 0 1005 -0.9 70
2019-04-03 09:00:00 12.6 9 Sudoeste 13 Sudoeste 0 1005.5 -0.5 85
2019-04-03 08:00:00 10.3 9 Sudoeste 13 Sudoeste 0 1005.7 -1 89
2019-04-03 07:00:00 10.9 9 Oeste 13 Sudoeste 0 1005.9 -1.7 90
2019-04-03 06:00:00 11.3 12 Oeste 15 Oeste 0 1006 -2.5 91
2019-04-03 05:00:00 12.4 12 Oeste 21 Oeste 0 1006.7 -2.4 91
2019-04-03 04:00:00 12.3 14 Oeste 18 Oeste 0 1007.6 -2.1 92
2019-04-03 03:00:00 11.6 11 Oeste 18 Oeste 0 1008.5 -1.7 93
2019-04-03 02:00:00 12.3 0 Calma 13 Sur 0 1009.1 -1.3 90
2019-04-03 01:00:00 13.4 10 Noroeste 15 Noroeste 0 1009.7 -0.3 87
2019-04-03 00:00:00 13.4 5 Noroeste 9 Noroeste 0 1010.2 0.7 88
2019-04-02 23:00:00 13.3 8 Este 35 Norte 0.9 1010.4 1.4 83
2019-04-02 22:00:00 15 13 Nordeste 22 Este 0 1010 1.2 92
2019-04-02 21:00:00 15.8 3 Este 17 Norte 0 1009.5 0.5 86
2019-04-02 20:00:00 16.9 0 Calma 18 Sur 0 1009 -0.7 80
2019-04-02 19:00:00 17.7 10 Sur 24 Sur 0 1008.8 -1 77
2019-04-02 18:00:00 18 13 Sur 26 Sudoeste 3.4 1009 -1.4 79
2019-04-02 17:00:00 19.2 13 Sur 30 Sur 0.3 1009.7 -1.5 66
2019-04-02 16:00:00 17.9 16 Sur 32 Sur -- 1009.8 -2.3 82
2019-04-02 15:00:00 19.5 18 Sur 30 Sur 0 1010.4 -2.2 67
2019-04-02 14:00:00 20.9 15 Sur 26 Sudoeste 0 1011.2 -1.5 57
2019-04-02 13:00:00 19.7 14 Sudoeste 24 Sudoeste 0 1012.1 -0.6 62
2019-04-02 12:00:00 18.2 11 Sudoeste 22 Oeste 0 1012.6 0 67
2019-04-02 11:00:00 16.8 14 Sudoeste 24 Sudoeste 0 1012.7 0.4 75
2019-04-02 10:00:00 14.8 16 Sudoeste 22 Oeste 0 1012.7 0.5 86
2019-04-02 09:00:00 12.4 7 Sudoeste 13 Sudoeste 0 1012.6 0.3 97
2019-04-02 08:00:00 11.7 9 Sudoeste 13 Sudoeste 0 1012.3 -0.1 97
2019-04-02 07:00:00 12.3 4 Oeste 9 Sudoeste 0 1012.2 -0.5 96
2019-04-02 06:00:00 12.5 8 Sudoeste 9 Sudoeste 0 1012.3 -1.1 95
2019-04-02 05:00:00 12.5 6 Oeste 11 Oeste 0 1012.4 -1.2 95
2019-04-02 04:00:00 12 7 Oeste 9 Oeste 0 1012.7 -1.1 95
2019-04-02 03:00:00 12.8 9 Oeste 11 Oeste 0 1013.4 -0.5 94
2019-04-02 02:00:00 13.3 5 Noroeste 11 Noroeste 0 1013.6 -0.3 91
2019-04-02 01:00:00 13.5 2 Oeste 8 Oeste 0 1013.8 0.2 88
2019-04-02 00:00:00 14.4 0 Calma 5 Sudeste 0 1013.9 1 85
2019-04-01 23:00:00 14.4 5 Este 13 Este 0 1013.9 1.7 86
2019-04-01 22:00:00 14.6 8 Este 15 Sudeste 0 1013.6 1.9 86
2019-04-01 21:00:00 14.7 10 Este 21 Sudeste 0 1012.9 1.6 86
2019-04-01 20:00:00 14.9 13 Sudeste 24 Este 0 1012.2 1.3 86
2019-04-01 19:00:00 15.5 13 Este 28 Este 0 1011.7 0.7 82
2019-04-01 18:00:00 16.4 19 Este 28 Este 0 1011.3 -0.1 79
2019-04-01 17:00:00 17.4 22 Este 28 Este 0 1010.9 -1 69
2019-04-01 16:00:00 17.7 18 Este 26 Este 0 1011 -1.1 67
2019-04-01 15:00:00 17.2 6 Este 13 Sudeste 0 1011.4 -0.7 69
2019-04-01 14:00:00 16.7 5 Sur 13 Este 0 1011.9 0.4 74
2019-04-01 13:00:00 15.5 4 Este 9 Este 0 1012.1 1.5 87
2019-04-01 12:00:00 14.5 0 Calma 15 Norte 0.2 1012.1 2.2 91
2019-04-01 11:00:00 14.1 6 Nordeste 11 Norte 0 1011.5 2.1 91
2019-04-01 10:00:00 13.7 0 Calma 8 Sudoeste 0 1010.6 1.4 92
2019-04-01 09:00:00 13.3 6 Oeste 21 Oeste 0 1009.9 0.8 90
2019-04-01 08:00:00 12.9 12 Oeste 17 Oeste 0 1009.4 0.2 95
2019-04-01 07:00:00 12.9 9 Noroeste 15 Noroeste 0 1009.2 0.1 97
2019-04-01 06:00:00 12.8 7 Oeste 17 Norte 0.6 1009.1 0 98
2019-04-01 05:00:00 12.8 6 Norte 15 Este 0.7 1009.2 -0.1 98
2019-04-01 04:00:00 12.8 11 Este 18 Este 0.1 1009.1 -0.1 97
2019-04-01 03:00:00 13 6 Nordeste 15 Norte 0.2 1009.1 0.1 97
2019-04-01 02:00:00 13.2 10 Nordeste 26 Este 0.5 1009.3 0.3 96
2019-04-01 01:00:00 13.6 14 Norte 26 Norte 0 1009.2 0.7 92
2019-04-01 00:00:00 13.4 13 Norte 26 Norte 0.9 1009 1.4 95
2019-03-31 23:00:00 13.6 14 Nordeste 24 Nordeste 2.4 1009 1.5 94
2019-03-31 22:00:00 14.1 2 Noroeste 8 Norte 0 1008.5 1.2 95
2019-03-31 21:00:00 14.1 0 Calma 11 Oeste 0 1007.6 0.3 95
2019-03-31 20:00:00 14.1 9 Oeste 13 Oeste 0 1007.5 0.2 95
2019-03-31 19:00:00 14.4 6 Oeste 18 Este 0.1 1007.3 -0.3 94
2019-03-31 18:00:00 14.5 6 Este 17 Este 0 1007.3 -1.1 92
2019-03-31 17:00:00 14.4 5 Sudeste 15 Sudeste 0 1007.3 -2 95
2019-03-31 16:00:00 14.5 4 Noroeste 17 Norte 0.9 1007.6 -2.6 93
2019-03-31 15:00:00 14 10 Nordeste 30 Este 1.8 1008.4 -2 94
2019-03-31 14:00:00 13.6 20 Nordeste 39 Este 1.5 1009.3 -1.1 94
2019-03-31 13:00:00 12.9 8 Este 33 Este 1.4 1010.2 -0.1 95
2019-03-31 12:00:00 12.8 8 Sudoeste 11 Sudoeste 1.1 1010.4 0.3 95
2019-03-31 11:00:00 12.2 6 Oeste 9 Oeste 1.2 1010.4 0.4 93
2019-03-31 10:00:00 11.3 6 Oeste 15 Oeste 1.2 1010.3 -0.1 94
2019-03-31 09:00:00 11.3 7 Oeste 13 Noroeste 0.9 1010.1 -1.1 92
2019-03-31 08:00:00 10.8 11 Noroeste 17 Noroeste 1.4 1010 -1.7 91
2019-03-31 07:00:00 10.7 8 Noroeste 11 Noroeste 1.2 1010.4 -2.6 87
2019-03-31 06:00:00 11.2 3 Este 22 Norte 0.4 1011.2 -2.9 83
2019-03-31 05:00:00 12.1 9 Norte 17 Noroeste 0.9 1011.7 -2.8 83
2019-03-31 03:00:00 13 6 Oeste 15 Oeste 0 1014.1 -0.7 72
2019-03-31 01:00:00 12.5 8 Noroeste 32 Este 0 1014.5 -0.6 74
2019-03-31 00:00:00 13.8 24 Este 33 Este 0 1014.3 -1.3 69
2019-03-30 23:00:00 13.6 21 Este 30 Este 0 1014.8 -0.3 70
2019-03-30 22:00:00 13.7 21 Este 32 Este 0 1015.1 -0.5 73
2019-03-30 21:00:00 13.8 20 Este 35 Nordeste 0 1015.6 -0.1 73
2019-03-30 20:00:00 13.9 20 Nordeste 41 Este 0 1015.1 -0.1 72
2019-03-30 19:00:00 14.2 23 Este 39 Este 0 1015.6 0.1 70
2019-03-30 18:00:00 14.9 27 Este 41 Este 0 1015.7 -0.6 69
2019-03-30 17:00:00 16.2 31 Este 45 Este 0 1015.2 -2 61
2019-03-30 16:00:00 16.3 30 Este 41 Este 0 1015.5 -2.8 61
2019-03-30 15:00:00 16.4 28 Este 41 Este 0 1016.3 -2.8 59
2019-03-30 14:00:00 16.7 28 Este 41 Este 0 1017.2 -2.3 56
2019-03-30 13:00:00 16.8 25 Este 39 Norte 0 1018.3 -1.2 59
2019-03-30 12:00:00 16.4 24 Este 33 Este 0 1019.1 -0.5 53
2019-03-30 11:00:00 16 17 Este 28 Este 0 1019.5 -0.3 49
2019-03-30 10:00:00 15.6 10 Nordeste 24 Este 0 1019.5 0 48
2019-03-30 09:00:00 13.1 9 Norte 15 Nordeste 0 1019.6 0.5 55
2019-03-30 08:00:00 10.2 11 Noroeste 21 Norte 0 1019.8 0.5 64
2019-03-30 07:00:00 8.1 12 Noroeste 13 Noroeste 0 1019.5 -0.3 71
2019-03-30 06:00:00 9.3 8 Noroeste 11 Norte 0 1019.1 -1.1 66
2019-03-30 05:00:00 9.6 9 Norte 13 Norte 0 1019.3 -1.4 68
2019-03-30 04:00:00 9.1 10 Noroeste 11 Noroeste 0 1019.8 -1.7 72
2019-03-30 03:00:00 9.9 9 Norte 15 Norte 0 1020.2 -1.6 69
2019-03-30 02:00:00 11 12 Norte 17 Norte 0 1020.7 -1.3 68
2019-03-30 01:00:00 12.1 13 Norte 21 Nordeste 0 1021.5 -0.5 65
2019-03-30 00:00:00 12.2 12 Norte 18 Norte 0 1021.8 0.1 66
2019-03-29 23:00:00 12.1 6 Nordeste 26 Este 0 1022 0.9 69
2019-03-29 22:00:00 12.9 19 Este 32 Este 0 1022 1.1 63
2019-03-29 21:00:00 13 16 Este 30 Este 0 1021.7 0.9 72
2019-03-29 20:00:00 13.3 20 Este 32 Este 0 1021.1 0 67
2019-03-29 19:00:00 14.3 25 Este 35 Nordeste 0 1020.9 -0.3 67
2019-03-29 18:00:00 14.8 25 Este 35 Este 0 1020.8 -1 63
2019-03-29 17:00:00 15.3 26 Este 39 Este 0 1021.1 -1.5 58
2019-03-29 16:00:00 16.1 28 Este 41 Este 0 1021.2 -2 56
2019-03-29 15:00:00 16.7 26 Este 42 Este 0 1021.8 -2 52
2019-03-29 14:00:00 16.5 27 Este 41 Este 0 1022.6 -1.6 54
2019-03-29 13:00:00 16.7 24 Nordeste 42 Norte 0 1023.2 -0.7 53
2019-03-29 12:00:00 16.6 25 Este 39 Este 0 1023.8 0.3 56
2019-03-29 11:00:00 16 24 Este 45 Este 0 1024.2 0.8 58
2019-03-29 10:00:00 15.8 22 Nordeste 33 Este 0 1023.9 0.8 59
2019-03-29 09:00:00 14.8 16 Nordeste 24 Nordeste 0 1023.5 0.5 57
2019-03-29 08:00:00 12.1 14 Norte 22 Norte 0 1023.4 0.6 57
2019-03-29 07:00:00 10.8 13 Norte 22 Norte 0 1023.1 0.3 56
2019-03-29 06:00:00 8.8 13 Norte 17 Norte 0 1023 -0.1 59
2019-03-29 05:00:00 10.3 14 Norte 18 Norte 0 1022.8 -0.6 50
2019-03-29 04:00:00 9.3 11 Norte -- -- 0 1022.8 -1 58
2019-03-29 03:00:00 9.7 6 Noroeste 13 Norte 0 1023.1 -0.8 66
2019-03-29 02:00:00 9.3 11 Norte 17 Norte 0 1023.4 -0.6 80
2019-03-29 01:00:00 8.8 10 Norte 17 Nordeste 0 1023.8 -0.2 85
2019-03-29 00:00:00 10 11 Norte 17 Norte 0 1023.9 -0.1 81
2019-03-28 23:00:00 10.9 9 Norte 15 Norte 0 1024 0.5 80
2019-03-28 22:00:00 12.1 6 Norte 13 Nordeste 0 1024 0.6 78
2019-03-28 21:00:00 12 7 Nordeste 15 Este 0 1024 0.8 79
2019-03-28 20:00:00 12.8 11 Nordeste 22 Este 0 1023.5 0.6 75
2019-03-28 19:00:00 14.2 16 Este 26 Norte 0 1023.4 0.5 70
2019-03-28 18:00:00 15.1 16 Este 30 Este 0 1023.2 -0.1 65
2019-03-28 17:00:00 16.2 18 Este 30 Este 0 1022.9 -1 56
2019-03-28 16:00:00 17 20 Este 32 Este 0 1022.9 -1.2 42
2019-03-28 15:00:00 16.4 21 Este 33 Este 0 1023.3 -0.9 50
2019-03-28 14:00:00 16.7 22 Este 35 Este 0 1023.9 -0.5 46
2019-03-28 13:00:00 17.5 20 Sudeste 37 Este 0 1024.1 -0.1 40
2019-03-28 12:00:00 18.1 18 Este 30 Norte 0 1024.2 0.2 20
2019-03-28 11:00:00 17.9 13 Este 30 Este 0 1024.4 0.7 16
2019-03-28 10:00:00 16.9 2 Este 11 Oeste 0 1024.2 0.8 26
2019-03-28 09:00:00 14 7 Oeste 13 Noroeste 0 1024 1.2 29
2019-03-28 08:00:00 9.6 8 Oeste 13 Noroeste 0 1023.7 1 43
2019-03-28 07:00:00 7.8 11 Norte 17 Norte 0 1023.4 0.7 47
2019-03-28 06:00:00 7.4 5 Norte 17 Norte 0 1022.8 0 54
2019-03-28 05:00:00 8.4 13 Noroeste 22 Noroeste 0 1022.7 -0.4 51
2019-03-28 04:00:00 7.8 14 Noroeste 18 Noroeste 0 1022.7 -0.7 60
2019-03-28 03:00:00 7.9 11 Noroeste 18 Noroeste 0 1022.8 -0.5 67
2019-03-28 02:00:00 8 12 Noroeste 17 Noroeste 0 1023.1 0.2 69
2019-03-28 01:00:00 -- 9 Noroeste 13 Norte 0 1023.4 0.9 --
2019-03-28 00:00:00 9.1 5 Oeste 11 Norte 0 1023.3 1.4 78
2019-03-27 23:00:00 8.8 5 Noroeste 13 Nordeste 0 1022.9 1.9 77
2019-03-27 22:00:00 11.3 8 Nordeste 15 Nordeste 0 1022.5 2.1 72
2019-03-27 21:00:00 12.6 13 Este 30 Este 0 1021.9 1.9 71
2019-03-27 20:00:00 13.5 19 Este 37 Este 0 1021 1.3 66
2019-03-27 19:00:00 14.6 29 Este 42 Este 0 1020.4 0.7 54
2019-03-27 18:00:00 15.9 33 Este 46 Norte 0 1020 0.4 47
2019-03-27 17:00:00 16.7 32 Este 52 Este 0 1019.7 -0.1 42
2019-03-27 16:00:00 17.1 35 Nordeste 52 Este 0 1019.7 -0.5 39
2019-03-27 15:00:00 17.3 34 Este 52 Este 0 1019.6 -0.9 40
2019-03-27 14:00:00 17.4 37 Este 48 Este 0 1019.8 -0.8 35
2019-03-27 13:00:00 17.2 34 Este 45 Este 0 1020.2 -0.2 36
2019-03-27 12:00:00 17.5 30 Este 42 Este 0 1020.5 0.4 36
2019-03-27 11:00:00 16.6 30 Este 41 Este 0 1020.6 0.6 41
2019-03-27 10:00:00 16.1 23 Nordeste 35 Este 0 1020.4 0.8 41
2019-03-27 09:00:00 15.5 22 Nordeste 33 Nordeste 0 1020.1 0.7 37
2019-03-27 08:00:00 12.7 10 Norte 24 Norte 0 1020 0.9 38
2019-03-27 07:00:00 11 11 Norte 32 Nordeste 0 1019.6 0.2 44
2019-03-27 06:00:00 10.9 10 Norte 18 Norte 0 1019.4 -0.4 44
2019-03-27 05:00:00 10.4 12 Norte 17 Norte 0 1019.1 -1.1 48
2019-03-27 04:00:00 11.4 12 Norte 18 Norte 0 1019.4 -1 48
2019-03-27 03:00:00 11.1 15 Norte 21 Norte 0 1019.8 0 56
2019-03-27 02:00:00 11.7 13 Norte 22 Norte 0 1020.2 0.8 51
2019-03-27 01:00:00 11.5 11 Norte 21 Nordeste 0 1020.4 1.2 44
2019-03-27 00:00:00 11.6 11 Norte 30 Nordeste 0 1019.8 1.1 52
2019-03-26 23:00:00 11.8 18 Norte 30 Nordeste 0 1019.4 1.6 61
2019-03-26 22:00:00 12.5 22 Nordeste 37 Nordeste 0 1019.2 2.1 66
2019-03-26 21:00:00 13.3 23 Nordeste 46 Este 0 1018.7 2.4 68
2019-03-26 20:00:00 13.4 34 Este 45 Este 0 1017.8 1.9 66
2019-03-26 19:00:00 14.6 31 Este 48 Este 0 1017.1 1.4 62
2019-03-26 18:00:00 15.8 34 Nordeste 54 Este 0 1016.3 0.3 56
2019-03-26 17:00:00 16.8 39 Norte 48 Este 0 1015.9 -0.2 62
2019-03-26 16:00:00 17 34 Nordeste 52 Este 0 1015.7 -0.7 64
2019-03-26 15:00:00 17.6 42 Este 59 Este 0 1016 -0.5 62
2019-03-26 14:00:00 18.2 40 Norte 52 Este 0 1016.1 -0.4 52
2019-03-26 13:00:00 18.1 41 Este 55 Este 0 1016.4 0.3 55
2019-03-26 12:00:00 18.1 39 Este 59 Este -- 1016.5 0.8 55
2019-03-26 11:00:00 17.3 40 Este 58 Este -- 1016.5 1.4 52
2019-03-26 10:00:00 16.9 38 Este 55 Este 0 1016.1 1.7 62
2019-03-26 09:00:00 15.7 4 Sudoeste 11 Oeste 0 1015.7 1.9 44
2019-03-26 08:00:00 11 8 Oeste 11 Noroeste 0 1015.1 1.5 53
2019-03-26 07:00:00 8.6 7 Norte 9 Noroeste 0 1014.4 1 57
2019-03-26 06:00:00 7.7 6 Oeste 11 Oeste 0 1013.8 0.2 61
2019-03-26 05:00:00 8.1 4 Sudoeste 8 Oeste 0 1013.6 -0.5 60
2019-03-26 04:00:00 10.6 4 Noroeste 13 Noroeste 0 1013.4 -1 50
2019-03-26 03:00:00 9.3 8 Noroeste 11 Noroeste 0 1013.6 -1 60
2019-03-26 02:00:00 10.4 9 Noroeste 11 Noroeste 0 1014.1 -0.5 58
2019-03-26 01:00:00 10.1 5 Noroeste 9 Noroeste 0 1014.4 -0.2 64
2019-03-26 00:00:00 10.7 7 Oeste 9 Oeste 0 1014.6 0.2 68
2019-03-25 23:00:00 10.9 5 Noroeste 11 Norte 0 1014.6 0.3 68
2019-03-25 22:00:00 12.3 5 Norte 15 Nordeste 0 1014.6 0.5 65
2019-03-25 21:00:00 13.4 5 Norte 13 Norte 0 1014.4 0.7 66
2019-03-25 20:00:00 15.1 3 Este 13 Este 0 1014.3 0.3 64
2019-03-25 19:00:00 16.4 9 Nordeste 15 Este 0 1014.1 -0.4 55
2019-03-25 18:00:00 17.7 11 Este 21 Este 0 1013.7 -1.4 51
2019-03-25 17:00:00 18.4 14 Este 26 Este 0 1014 -1.7 46
2019-03-25 16:00:00 19.6 15 Este 22 Este 0 1014.5 -2.1 38
2019-03-25 15:00:00 20 14 Este 24 Este 0 1015.1 -2.1 40
2019-03-25 14:00:00 20.6 13 Este 21 Sudeste 0 1015.7 -2.1 32
2019-03-25 13:00:00 20 14 Este 22 Norte 0 1016.6 -1.1 34
2019-03-25 12:00:00 19.5 11 Este 18 Este 0 1017.2 -0.1 37
2019-03-25 11:00:00 19.3 12 Este 18 Este 0 1017.8 0.8 37
2019-03-25 10:00:00 18.4 5 Este 13 Este 0 1017.7 0.9 35
2019-03-25 09:00:00 17.2 2 Sudeste 11 Noroeste 0 1017.3 0.5 33
2019-03-25 08:00:00 11.9 9 Noroeste 18 Norte 0 1017 0.3 45
2019-03-25 07:00:00 9.6 8 Noroeste 11 Noroeste 0 1016.8 -0.1 51
2019-03-25 06:00:00 9.3 6 Oeste 9 Noroeste 0 1016.8 -0.5 54
2019-03-25 05:00:00 9.4 6 Oeste 9 Oeste 0 1016.7 -1 55
2019-03-25 04:00:00 10.2 7 Oeste 9 Oeste 0 1016.9 -1.4 57
2019-03-25 03:00:00 10.8 9 Oeste 9 Oeste 0 1017.3 -1.5 57
2019-03-25 02:00:00 12.9 5 Noroeste 13 Norte 0 1017.7 -1.2 52
2019-03-25 01:00:00 10.2 4 Noroeste -- -- 0 1018.3 -0.6 67
2019-03-25 00:00:00 11.8 3 Noroeste -- -- 0 1018.8 0.2 61